createdAt,value
2019-01-15T06:44:31.243Z,1001.53
2019-01-15T06:45:31.232Z,1001.59
2019-01-15T06:46:31.227Z,1001.55
2019-01-15T06:47:31.205Z,1001.58
2019-01-15T06:48:31.187Z,1001.53
2019-01-15T06:49:31.170Z,1001.50
2019-01-15T06:50:31.167Z,1001.49
2019-01-15T06:51:31.164Z,1001.53
2019-01-15T06:52:31.145Z,1001.52
2019-01-15T06:53:31.155Z,1001.55
2019-01-15T06:54:31.119Z,1001.50
2019-01-15T06:55:31.169Z,1001.52
2019-01-15T06:56:31.147Z,1001.47
2019-01-15T06:57:31.116Z,1001.44
2019-01-15T06:58:31.083Z,1001.48
2019-01-15T06:59:31.144Z,1001.50
2019-01-15T07:00:31.071Z,1001.53
2019-01-15T07:01:31.060Z,1001.53
2019-01-15T07:02:31.039Z,1001.55
2019-01-15T07:03:31.027Z,1001.48
2019-01-15T07:04:31.026Z,1001.49
2019-01-15T07:05:30.999Z,1001.46
2019-01-15T07:06:31.006Z,1001.54
2019-01-15T07:07:31.016Z,1001.52
2019-01-15T07:08:30.973Z,1001.49
2019-01-15T07:09:30.992Z,1001.51
2019-01-15T07:10:30.951Z,1001.43
2019-01-15T07:11:30.934Z,1001.44
2019-01-15T07:12:30.938Z,1001.45
2019-01-15T07:13:30.917Z,1001.48
2019-01-15T07:14:30.914Z,1001.49
2019-01-15T07:15:30.903Z,1001.55
2019-01-15T07:16:30.966Z,1001.51
2019-01-15T07:17:30.925Z,1001.53
2019-01-15T07:18:30.903Z,1001.52
2019-01-15T07:19:33.333Z,1001.59
2019-01-15T07:20:30.895Z,1001.60
2019-01-15T07:21:30.974Z,1001.63
2019-01-15T07:22:30.880Z,1001.72
2019-01-15T07:23:30.821Z,1001.65
2019-01-15T07:24:30.876Z,1001.67
2019-01-15T07:25:30.821Z,1001.67
2019-01-15T07:26:30.801Z,1001.68
2019-01-15T07:27:30.844Z,1001.65
2019-01-15T07:28:30.812Z,1001.65
2019-01-15T07:29:30.828Z,1001.69
2019-01-15T07:30:30.815Z,1001.63
2019-01-15T07:31:30.797Z,1001.68
2019-01-15T07:32:30.771Z,1001.67
2019-01-15T07:33:30.773Z,1001.67
2019-01-15T07:34:30.749Z,1001.68
2019-01-15T07:35:30.704Z,1001.66
2019-01-15T07:36:30.676Z,1001.64
2019-01-15T07:37:30.705Z,1001.72
2019-01-15T07:38:30.645Z,1001.72
2019-01-15T07:39:30.754Z,1001.69
2019-01-15T07:40:30.676Z,1001.69
2019-01-15T07:41:30.657Z,1001.63
2019-01-15T07:42:30.702Z,1001.60
2019-01-15T07:43:30.679Z,1001.61
2019-01-15T07:44:30.623Z,1001.60
2019-01-15T07:45:30.647Z,1001.66
2019-01-15T07:46:30.617Z,1001.64
2019-01-15T07:47:30.633Z,1001.62
2019-01-15T07:48:30.608Z,1001.61
2019-01-15T07:49:30.586Z,1001.61
2019-01-15T07:50:30.591Z,1001.64
2019-01-15T07:51:30.526Z,1001.61
2019-01-15T07:52:30.543Z,1001.60
2019-01-15T07:53:30.572Z,1001.62
2019-01-15T07:54:30.528Z,1001.64
2019-01-15T07:55:30.663Z,1001.62
2019-01-15T07:56:30.523Z,1001.62
2019-01-15T07:57:30.451Z,1001.67
2019-01-15T07:58:30.426Z,1001.68
2019-01-15T07:59:30.533Z,1001.72
2019-01-15T08:00:30.422Z,1001.73
2019-01-15T08:01:30.548Z,1001.77
2019-01-15T08:02:30.437Z,1001.77
2019-01-15T08:03:30.414Z,1001.76
2019-01-15T08:04:30.450Z,1001.80
2019-01-15T08:05:31.231Z,1001.79
2019-01-15T08:06:30.378Z,1001.80
2019-01-15T08:07:30.332Z,1001.76
2019-01-15T08:08:30.404Z,1001.73
2019-01-15T08:09:30.322Z,1001.73
2019-01-15T08:10:30.343Z,1001.70
2019-01-15T08:11:30.309Z,1001.66
2019-01-15T08:12:30.364Z,1001.68
2019-01-15T08:13:30.302Z,1001.65
2019-01-15T08:14:30.307Z,1001.72
2019-01-15T08:15:30.309Z,1001.70
2019-01-15T08:16:30.314Z,1001.70
2019-01-15T08:17:30.229Z,1001.78
2019-01-15T08:18:30.245Z,1001.78
2019-01-15T08:19:30.225Z,1001.76
2019-01-15T08:20:30.189Z,1001.77
2019-01-15T08:21:30.180Z,1001.74
2019-01-15T08:22:30.163Z,1001.75
2019-01-15T08:23:30.146Z,1001.70
2019-01-15T08:24:30.158Z,1001.65
2019-01-15T08:25:30.182Z,1001.67
2019-01-15T08:26:30.161Z,1001.64
2019-01-15T08:27:30.138Z,1001.67
2019-01-15T08:28:30.101Z,1001.68
2019-01-15T08:29:30.093Z,1001.74
2019-01-15T08:30:30.111Z,1001.68
2019-01-15T08:31:30.077Z,1001.72
2019-01-15T08:32:30.071Z,1001.69
2019-01-15T08:33:30.096Z,1001.74
2019-01-15T08:34:30.037Z,1001.67
2019-01-15T08:35:30.034Z,1001.69
2019-01-15T08:36:30.012Z,1001.63
2019-01-15T08:37:30.017Z,1001.63
2019-01-15T08:38:30.122Z,1001.62
2019-01-15T08:39:54.917Z,1001.64
2019-01-15T08:40:54.908Z,1001.61
2019-01-15T08:41:56.095Z,1001.61
2019-01-15T08:42:54.966Z,1001.61
2019-01-15T08:43:54.883Z,1001.66
2019-01-15T08:44:54.863Z,1001.61
2019-01-15T08:45:55.478Z,1001.59
2019-01-15T08:46:54.949Z,1001.62
2019-01-15T08:47:54.840Z,1001.57
2019-01-15T08:48:54.812Z,1001.59
2019-01-15T08:49:54.797Z,1001.62
2019-01-15T08:50:54.829Z,1001.59
2019-01-15T08:51:54.840Z,1001.58
2019-01-15T08:52:54.806Z,1001.62
2019-01-15T08:53:54.804Z,1001.62
2019-01-15T08:54:54.787Z,1001.68
2019-01-15T08:55:54.774Z,1001.72
2019-01-15T08:56:54.954Z,1001.65
2019-01-15T08:57:54.774Z,1001.62
2019-01-15T08:58:54.733Z,1001.64
2019-01-15T08:59:54.717Z,1001.64
2019-01-15T09:00:54.724Z,1001.60
2019-01-15T09:01:54.661Z,1001.59
2019-01-15T09:02:54.739Z,1001.60
2019-01-15T09:03:56.474Z,1001.63
2019-01-15T09:04:54.646Z,1001.67
2019-01-15T09:05:54.671Z,1001.67
2019-01-15T09:06:54.666Z,1001.64
2019-01-15T09:07:54.674Z,1001.59
2019-01-15T09:08:54.644Z,1001.65
2019-01-15T09:09:54.670Z,1001.61
2019-01-15T09:10:54.652Z,1001.64
2019-01-15T09:11:54.628Z,1001.58
2019-01-15T09:12:54.552Z,1001.60
2019-01-15T09:13:55.618Z,1001.61
2019-01-15T09:14:54.595Z,1001.61
2019-01-15T09:15:54.657Z,1001.64
2019-01-15T09:16:54.525Z,1001.64
2019-01-15T09:17:55.382Z,1001.64
2019-01-15T09:18:56.182Z,1001.63
2019-01-15T09:19:54.527Z,1001.65
2019-01-15T09:20:54.514Z,1001.56
2019-01-15T09:21:54.500Z,1001.57
2019-01-15T09:22:54.511Z,1001.60
2019-01-15T09:23:54.434Z,1001.52
2019-01-15T09:24:54.480Z,1001.57
2019-01-15T09:25:54.422Z,1001.54
2019-01-15T09:26:54.425Z,1001.58
2019-01-15T09:27:54.388Z,1001.57
2019-01-15T09:28:54.391Z,1001.54
2019-01-15T09:29:54.412Z,1001.51
2019-01-15T09:30:59.908Z,1001.53
2019-01-15T09:31:54.340Z,1001.51
2019-01-15T09:32:54.372Z,1001.52
2019-01-15T09:33:54.393Z,1001.53
2019-01-15T09:34:54.321Z,1001.52
2019-01-15T09:35:54.322Z,1001.53
2019-01-15T09:36:56.954Z,1001.50
2019-01-15T09:37:54.279Z,1001.54
2019-01-15T09:38:54.287Z,1001.51
2019-01-15T09:39:54.273Z,1001.47
2019-01-15T09:40:54.248Z,1001.59
2019-01-15T09:41:54.293Z,1001.56
2019-01-15T09:42:54.237Z,1001.56
2019-01-15T09:43:54.463Z,1001.58
2019-01-15T09:44:54.210Z,1001.55
2019-01-15T09:45:54.258Z,1001.55
2019-01-15T09:46:54.197Z,1001.57
2019-01-15T09:47:54.236Z,1001.52
2019-01-15T09:48:54.231Z,1001.52
2019-01-15T09:49:54.186Z,1001.55
2019-01-15T09:50:54.223Z,1001.57
2019-01-15T09:51:55.199Z,1001.61
2019-01-15T09:52:54.111Z,1001.55
2019-01-15T09:53:54.102Z,1001.64
2019-01-15T09:54:54.110Z,1001.60
2019-01-15T09:55:54.110Z,1001.55
2019-01-15T09:56:54.090Z,1001.55
2019-01-15T09:57:54.065Z,1001.55
2019-01-15T09:58:54.113Z,1001.53
2019-01-15T09:59:54.141Z,1001.53
2019-01-15T10:00:54.681Z,1001.51
2019-01-15T10:01:54.018Z,1001.51
2019-01-15T10:02:54.023Z,1001.52
2019-01-15T10:03:55.133Z,1001.54
2019-01-15T10:04:54.067Z,1001.52
2019-01-15T10:05:55.761Z,1001.51
2019-01-15T10:06:54.023Z,1001.55
2019-01-15T10:07:53.981Z,1001.53
2019-01-15T10:08:54.031Z,1001.53
2019-01-15T10:09:53.949Z,1001.48
2019-01-15T10:10:53.946Z,1001.55
2019-01-15T10:11:53.993Z,1001.47
2019-01-15T10:12:53.939Z,1001.49
2019-01-15T10:13:53.961Z,1001.49
2019-01-15T10:14:53.931Z,1001.51
2019-01-15T10:15:54.262Z,1001.51
2019-01-15T10:16:53.939Z,1001.55
2019-01-15T10:17:53.920Z,1001.52
2019-01-15T10:18:53.887Z,1001.58
2019-01-15T10:19:54.436Z,1001.55
2019-01-15T10:20:55.352Z,1001.54
2019-01-15T10:21:54.992Z,1001.54
2019-01-15T10:22:56.963Z,1001.48
2019-01-15T10:23:53.842Z,1001.53
2019-01-15T10:24:54.935Z,1001.45
2019-01-15T10:25:53.848Z,1001.47
2019-01-15T10:26:53.827Z,1001.47
2019-01-15T10:27:53.743Z,1001.45
2019-01-15T10:28:53.751Z,1001.42
2019-01-15T10:29:59.117Z,1001.38
2019-01-15T10:30:58.944Z,1001.39
2019-01-15T10:31:53.694Z,1001.36
2019-01-15T10:32:53.732Z,1001.41
2019-01-15T10:33:53.681Z,1001.38
2019-01-15T10:34:53.694Z,1001.40
2019-01-15T10:35:53.709Z,1001.36
2019-01-15T10:36:53.702Z,1001.36
2019-01-15T10:37:53.682Z,1001.34
2019-01-15T10:38:53.671Z,1001.32
2019-01-15T10:39:53.669Z,1001.34
2019-01-15T10:40:53.650Z,1001.34
2019-01-15T10:41:53.679Z,1001.32
2019-01-15T10:42:54.136Z,1001.31
2019-01-15T10:43:53.583Z,1001.26
2019-01-15T10:44:53.659Z,1001.21
2019-01-15T10:45:53.578Z,1001.21
2019-01-15T10:46:53.811Z,1001.22
2019-01-15T10:47:53.553Z,1001.24
2019-01-15T10:48:53.565Z,1001.29
2019-01-15T10:49:53.574Z,1001.24
2019-01-15T10:50:53.572Z,1001.25
2019-01-15T10:51:53.552Z,1001.26
2019-01-15T10:52:53.517Z,1001.27
2019-01-15T10:53:53.517Z,1001.22
2019-01-15T10:54:53.510Z,1001.28
2019-01-15T10:55:53.528Z,1001.16
2019-01-15T10:56:53.475Z,1001.17
2019-01-15T10:57:53.459Z,1001.18
2019-01-15T10:58:53.473Z,1001.17
2019-01-15T10:59:53.448Z,1001.15
2019-01-15T11:00:53.436Z,1001.15
2019-01-15T11:01:53.372Z,1001.08
2019-01-15T11:02:53.352Z,1001.05
2019-01-15T11:03:53.378Z,1001.09
2019-01-15T11:04:53.343Z,1001.07
2019-01-15T11:05:53.321Z,1001.04
2019-01-15T11:06:53.325Z,1001.07
2019-01-15T11:07:53.301Z,1001.03
2019-01-15T11:08:54.285Z,1000.98
2019-01-15T11:09:53.276Z,1000.98
2019-01-15T11:10:53.286Z,1000.92
2019-01-15T11:11:53.266Z,1001.00
2019-01-15T11:12:53.228Z,1000.90
2019-01-15T11:13:53.220Z,1000.92
2019-01-15T11:14:56.235Z,1000.92
2019-01-15T11:15:53.229Z,1000.89
2019-01-15T11:16:53.229Z,1000.83
2019-01-15T11:17:53.247Z,1000.86
2019-01-15T11:18:53.171Z,1000.82
2019-01-15T11:19:53.162Z,1000.82
2019-01-15T11:20:56.950Z,1000.84
2019-01-15T11:21:53.151Z,1000.81
2019-01-15T11:22:53.146Z,1000.85
2019-01-15T11:23:53.121Z,1000.79
2019-01-15T11:24:53.107Z,1000.77
2019-01-15T11:25:53.106Z,1000.81
2019-01-15T11:26:53.104Z,1000.81
2019-01-15T11:27:53.108Z,1000.80
2019-01-15T11:28:53.121Z,1000.76
2019-01-15T11:29:53.087Z,1000.78
2019-01-15T11:30:53.674Z,1000.75
2019-01-15T11:31:53.026Z,1000.77
2019-01-15T11:32:53.079Z,1000.78
2019-01-15T11:33:53.015Z,1000.75
2019-01-15T11:34:52.990Z,1000.83
2019-01-15T11:35:53.001Z,1000.70
2019-01-15T11:36:52.978Z,1000.79
2019-01-15T11:37:52.972Z,1000.73
2019-01-15T11:38:52.953Z,1000.73
2019-01-15T11:39:53.006Z,1000.71
2019-01-15T11:40:53.940Z,1000.67
2019-01-15T11:41:52.928Z,1000.72
2019-01-15T11:42:52.943Z,1000.72
2019-01-15T11:43:52.906Z,1000.76
2019-01-15T11:44:52.894Z,1000.79
2019-01-15T11:45:53.235Z,1000.71
2019-01-15T11:46:52.870Z,1000.67
2019-01-15T11:47:52.848Z,1000.77
2019-01-15T11:48:52.842Z,1000.75
2019-01-15T11:49:52.839Z,1000.69
2019-01-15T11:50:52.825Z,1000.72
2019-01-15T11:51:52.819Z,1000.67
2019-01-15T11:52:52.816Z,1000.66
2019-01-15T11:53:52.788Z,1000.67
2019-01-15T11:54:52.780Z,1000.67
2019-01-15T11:55:52.784Z,1000.76
2019-01-15T11:56:53.936Z,1000.72
2019-01-15T11:57:52.775Z,1000.74
2019-01-15T11:58:52.732Z,1000.70
2019-01-15T11:59:52.718Z,1000.75
2019-01-15T12:00:52.728Z,1000.76
2019-01-15T12:01:52.716Z,1000.70
2019-01-15T12:02:52.684Z,1000.75
2019-01-15T12:03:52.677Z,1000.68
2019-01-15T12:04:52.667Z,1000.74
2019-01-15T12:05:52.658Z,1000.69
2019-01-15T12:06:52.733Z,1000.68
2019-01-15T12:13:59.712Z,1000.68
2019-01-15T12:15:02.434Z,1000.67
2019-01-15T12:15:59.620Z,1000.75
2019-01-15T12:16:59.599Z,1000.65
2019-01-15T12:17:59.570Z,1000.61
2019-01-15T12:18:59.574Z,1000.54
2019-01-15T12:19:59.536Z,1000.71
2019-01-15T12:20:59.523Z,1000.60
2019-01-15T12:21:59.536Z,1000.64
2019-01-15T12:22:59.513Z,1000.60
2019-01-15T12:23:59.619Z,1000.60
2019-01-15T12:24:59.523Z,1000.51
2019-01-15T12:25:59.485Z,1000.49
2019-01-15T12:26:59.472Z,1000.52
2019-01-15T12:27:59.451Z,1000.53
2019-01-15T12:28:59.437Z,1000.58
2019-01-15T12:29:59.432Z,1000.62
2019-01-15T12:30:59.427Z,1000.58
2019-01-15T12:31:59.407Z,1000.58
2019-01-15T12:32:59.440Z,1000.55
2019-01-15T12:33:59.397Z,1000.58
2019-01-15T12:34:59.385Z,1000.59
2019-01-15T12:35:59.360Z,1000.55
2019-01-15T12:36:59.376Z,1000.53
2019-01-15T12:37:59.336Z,1000.54
2019-01-15T12:38:59.339Z,1000.54
2019-01-15T12:39:59.327Z,1000.58
2019-01-15T12:40:59.586Z,1000.64
2019-01-15T12:41:59.327Z,1000.61
2019-01-15T12:42:59.288Z,1000.62
2019-01-15T12:43:59.316Z,1000.50
2019-01-15T12:44:59.272Z,1000.58
2019-01-15T12:45:59.253Z,1000.55
2019-01-15T12:46:59.285Z,1000.59
2019-01-15T12:47:59.277Z,1000.60
2019-01-15T12:48:59.275Z,1000.56
2019-01-15T12:49:59.243Z,1000.53
2019-01-15T12:50:59.230Z,1000.51
2019-01-15T12:51:59.198Z,1000.49
2019-01-15T12:52:59.185Z,1000.59
2019-01-15T12:53:59.176Z,1000.48
2019-01-15T12:54:59.170Z,1000.46
2019-01-15T12:55:59.146Z,1000.51
2019-01-15T12:57:00.779Z,1000.47
2019-01-15T12:57:59.137Z,1000.45
2019-01-15T12:58:59.111Z,1000.48
2019-01-15T12:59:59.168Z,1000.50
2019-01-15T13:01:00.141Z,1000.52
2019-01-15T13:01:59.131Z,1000.50
2019-01-15T13:02:59.077Z,1000.47
2019-01-15T13:03:59.070Z,1000.48
2019-01-15T13:04:59.062Z,1000.46
2019-01-15T13:05:59.047Z,1000.45
2019-01-15T13:06:59.042Z,1000.44
2019-01-15T13:07:59.025Z,1000.35
2019-01-15T13:08:59.016Z,1000.39
2019-01-15T13:09:58.995Z,1000.32
2019-01-15T13:10:58.982Z,1000.41
2019-01-15T13:12:00.908Z,1000.36
2019-01-15T13:12:58.967Z,1000.35
2019-01-15T13:13:58.945Z,1000.39
2019-01-15T13:14:59.057Z,1000.36
2019-01-15T13:15:59.716Z,1000.32
2019-01-15T13:16:58.956Z,1000.31
2019-01-15T13:17:58.908Z,1000.37
2019-01-15T13:18:58.903Z,1000.37
2019-01-15T13:19:58.891Z,1000.35
2019-01-15T13:20:58.875Z,1000.28
2019-01-15T13:21:58.892Z,1000.35
2019-01-15T13:22:58.864Z,1000.32
2019-01-15T13:23:58.848Z,1000.33
2019-01-15T13:24:58.830Z,1000.30
2019-01-15T13:25:58.912Z,1000.32
2019-01-15T13:26:58.861Z,1000.28
2019-01-15T13:27:58.796Z,1000.24
2019-01-15T13:28:58.781Z,1000.26
2019-01-15T13:29:58.815Z,1000.22
2019-01-15T13:30:58.770Z,1000.26
2019-01-15T13:31:58.771Z,1000.21
2019-01-15T13:32:58.737Z,1000.20
2019-01-15T13:33:58.745Z,1000.12
2019-01-15T13:34:58.725Z,1000.15
2019-01-15T13:35:58.725Z,1000.15
2019-01-15T13:36:58.699Z,1000.14
2019-01-15T13:37:58.693Z,1000.10
2019-01-15T13:38:58.691Z,1000.11
2019-01-15T13:39:58.679Z,1000.05
2019-01-15T13:40:58.650Z,1000.05
2019-01-15T13:41:58.648Z,1000.07
2019-01-15T13:43:01.973Z,1000.02
2019-01-15T13:43:58.612Z,1000.00
2019-01-15T13:44:58.611Z,1000.02
2019-01-15T13:46:00.779Z,999.96
2019-01-15T13:46:58.599Z,999.91
2019-01-15T13:47:58.639Z,999.95
2019-01-15T13:48:58.572Z,999.93
2019-01-15T13:49:58.555Z,999.95
2019-01-15T13:50:58.569Z,999.94
2019-01-15T13:51:58.566Z,1000.02
2019-01-15T13:52:58.528Z,1000.01
2019-01-15T13:53:58.510Z,999.99
2019-01-15T13:54:58.504Z,1000.06
2019-01-15T13:55:58.495Z,1000.03
2019-01-15T13:56:58.496Z,999.99
2019-01-15T13:57:58.588Z,1000.01
2019-01-15T13:58:58.472Z,1000.00
2019-01-15T13:59:58.448Z,999.97
2019-01-15T14:00:58.452Z,1000.03
2019-01-15T14:01:58.442Z,999.95
2019-01-15T14:02:58.435Z,999.96
2019-01-15T14:03:58.535Z,999.96
2019-01-15T14:04:58.390Z,999.91
2019-01-15T14:05:58.415Z,999.94
2019-01-15T14:06:58.376Z,999.94
2019-01-15T14:07:58.361Z,999.95
2019-01-15T14:08:58.352Z,999.95
2019-01-15T14:09:58.367Z,999.96
2019-01-15T14:10:58.427Z,999.96
2019-01-15T14:11:58.326Z,999.97
2019-01-15T14:12:58.310Z,999.93
2019-01-15T14:13:58.296Z,999.95
2019-01-15T14:14:58.284Z,999.84
2019-01-15T14:15:58.279Z,999.85
2019-01-15T14:16:58.273Z,999.91
2019-01-15T14:17:58.253Z,999.87
2019-01-15T14:18:58.241Z,999.86
2019-01-15T14:19:58.240Z,999.93
2019-01-15T14:20:58.980Z,999.96
2019-01-15T14:21:58.213Z,1000.00
2019-01-15T14:22:58.194Z,999.93
2019-01-15T14:23:58.206Z,999.95
2019-01-15T14:24:58.602Z,999.92
2019-01-15T14:25:58.205Z,999.93
2019-01-15T14:26:58.166Z,999.90
2019-01-15T14:27:58.148Z,999.94
2019-01-15T14:28:58.210Z,999.91
2019-01-15T14:29:58.126Z,999.91
2019-01-15T14:30:58.200Z,999.92
2019-01-15T14:31:58.102Z,999.98
2019-01-15T14:32:58.471Z,999.91
2019-01-15T14:33:58.111Z,999.93
2019-01-15T14:34:58.078Z,999.88
2019-01-15T14:35:58.056Z,999.97
2019-01-15T14:36:58.436Z,999.92
2019-01-15T14:37:58.031Z,999.94
2019-01-15T14:38:58.735Z,999.92
2019-01-15T14:39:58.024Z,999.95
2019-01-15T14:40:58.027Z,999.94
2019-01-15T14:41:57.999Z,999.95
2019-01-15T14:42:57.982Z,999.93
2019-01-15T14:43:57.975Z,999.93
2019-01-15T14:44:57.967Z,999.92
2019-01-15T14:46:00.328Z,999.95
2019-01-15T14:46:57.981Z,999.94
2019-01-15T14:47:57.932Z,999.91
2019-01-15T14:48:57.908Z,999.94
2019-01-15T14:49:57.910Z,999.92
2019-01-15T14:50:57.930Z,999.94
2019-01-15T14:51:57.879Z,999.90
2019-01-15T14:52:57.873Z,999.87
2019-01-15T14:53:57.865Z,999.90
2019-01-15T14:54:57.848Z,999.84
2019-01-15T14:55:57.875Z,999.86
2019-01-15T14:56:57.827Z,999.89
2019-01-15T14:57:57.829Z,999.84
2019-01-15T14:58:57.815Z,999.82
2019-01-15T14:59:57.802Z,999.85
2019-01-15T15:00:57.793Z,999.82
2019-01-15T15:01:57.772Z,999.83
2019-01-15T15:02:57.785Z,999.79
2019-01-15T15:03:57.764Z,999.77
2019-01-15T15:04:57.743Z,999.75
2019-01-15T15:05:57.798Z,999.74
2019-01-15T15:06:57.719Z,999.80
2019-01-15T15:07:57.707Z,999.78
2019-01-15T15:08:57.711Z,999.74
2019-01-15T15:09:57.698Z,999.78
2019-01-15T15:10:57.667Z,999.79
2019-01-15T15:11:57.739Z,999.80
2019-01-15T15:12:57.649Z,999.80
2019-01-15T15:13:57.687Z,999.78
2019-01-15T15:14:57.648Z,999.79
2019-01-15T15:16:03.594Z,999.81
2019-01-15T15:17:22.746Z,999.82
2019-01-15T15:18:23.735Z,999.86
2019-01-15T15:19:22.726Z,999.88
2019-01-15T15:20:22.714Z,999.88
2019-01-15T15:21:22.703Z,999.86
2019-01-15T15:22:22.689Z,999.85
2019-01-15T15:23:22.680Z,999.87
2019-01-15T15:24:22.680Z,999.89
2019-01-15T15:25:22.679Z,999.89
2019-01-15T15:26:22.651Z,999.88
2019-01-15T15:27:22.639Z,999.95
2019-01-15T15:28:22.628Z,999.92
2019-01-15T15:29:22.625Z,999.91
2019-01-15T15:30:22.598Z,999.90
2019-01-15T15:31:22.608Z,999.88
2019-01-15T15:32:22.744Z,999.90
2019-01-15T15:33:22.569Z,999.88
2019-01-15T15:34:22.557Z,999.92
2019-01-15T15:35:22.546Z,999.90
2019-01-15T15:36:22.550Z,999.89
2019-01-15T15:37:22.556Z,999.96
2019-01-15T15:38:22.515Z,999.93
2019-01-15T15:39:22.512Z,999.92
2019-01-15T15:40:22.565Z,999.91
2019-01-15T15:41:22.479Z,999.89
2019-01-15T15:42:22.498Z,999.94
2019-01-15T15:43:22.482Z,999.92
2019-01-15T15:44:22.443Z,999.89
2019-01-15T15:45:22.470Z,999.92
2019-01-15T15:46:22.452Z,999.88
2019-01-15T15:47:22.409Z,999.95
2019-01-15T15:48:22.462Z,999.96
2019-01-15T15:49:22.410Z,999.94
2019-01-15T15:50:22.377Z,1000.01
2019-01-15T15:51:22.366Z,1000.03
2019-01-15T15:52:22.351Z,1000.02
2019-01-15T15:53:22.605Z,1000.02
2019-01-15T15:54:22.335Z,1000.02
2019-01-15T15:55:22.320Z,999.99
2019-01-15T15:56:22.324Z,1000.01
2019-01-15T15:57:22.309Z,1000.03
2019-01-15T15:58:22.291Z,1000.06
2019-01-15T15:59:22.280Z,1000.02
2019-01-15T16:00:22.265Z,1000.01
2019-01-15T16:01:22.254Z,1000.03
2019-01-15T16:02:22.246Z,1000.02
2019-01-15T16:03:22.252Z,999.99
2019-01-15T16:04:22.246Z,1000.01
2019-01-15T16:05:22.221Z,1000.06
2019-01-15T16:06:22.270Z,1000.05
2019-01-15T16:07:22.204Z,1000.11
2019-01-15T16:08:22.179Z,1000.08
2019-01-15T16:09:22.174Z,1000.04
2019-01-15T16:10:22.151Z,1000.09
2019-01-15T16:11:22.162Z,1000.05
2019-01-15T16:12:22.132Z,1000.08
2019-01-15T16:13:22.127Z,1000.09
2019-01-15T16:14:32.126Z,1000.00
2019-01-15T16:16:47.970Z,1000.00
2019-01-15T16:17:47.033Z,1000.04
2019-01-15T16:18:46.665Z,1000.01
2019-01-15T16:19:46.661Z,1000.02
2019-01-15T16:20:46.623Z,1000.02
2019-01-15T16:21:46.657Z,1000.05
2019-01-15T16:22:46.607Z,1000.02
2019-01-15T16:23:46.622Z,1000.02
2019-01-15T16:24:46.580Z,1000.05
2019-01-15T16:25:46.591Z,1000.03
2019-01-15T16:26:46.573Z,1000.05
2019-01-15T16:27:46.630Z,1000.05
2019-01-15T16:28:46.558Z,1000.07
2019-01-15T16:29:46.536Z,1000.08
2019-01-15T16:30:46.519Z,1000.04
2019-01-15T16:31:46.524Z,1000.02
2019-01-15T16:32:46.503Z,1000.06
2019-01-15T16:33:46.491Z,1000.03
2019-01-15T16:34:46.482Z,1000.02
2019-01-15T16:35:46.464Z,999.98
2019-01-15T16:36:46.456Z,1000.00
2019-01-15T16:37:46.628Z,999.98
2019-01-15T16:38:46.451Z,1000.04
2019-01-15T16:39:46.427Z,1000.04
2019-01-15T16:40:46.421Z,1000.03
2019-01-15T16:41:46.413Z,1000.04
2019-01-15T16:42:46.404Z,1000.00
2019-01-15T16:43:46.419Z,1000.02
2019-01-15T16:44:46.385Z,1000.02
2019-01-15T16:45:46.356Z,1000.00
2019-01-15T16:46:46.340Z,999.99
2019-01-15T16:47:46.339Z,1000.01
2019-01-15T16:48:46.323Z,999.93
2019-01-15T16:49:46.312Z,999.94
2019-01-15T16:50:46.314Z,1000.02
2019-01-15T16:51:46.359Z,999.96
2019-01-15T16:52:46.281Z,999.98
2019-01-15T16:53:46.281Z,999.98
2019-01-15T16:54:46.301Z,999.94
2019-01-15T16:55:46.262Z,999.98
2019-01-15T16:56:46.241Z,999.97
2019-01-15T16:57:46.228Z,1000.00
2019-01-15T16:58:46.212Z,999.96
2019-01-15T16:59:46.215Z,1000.01
2019-01-15T17:00:46.187Z,1000.01
2019-01-15T17:01:46.192Z,1000.01
2019-01-15T17:02:46.177Z,999.99
2019-01-15T17:03:46.167Z,1000.04
2019-01-15T17:04:46.163Z,999.98
2019-01-15T17:05:46.164Z,1000.00
2019-01-15T17:06:46.127Z,999.98
2019-01-15T17:07:46.129Z,999.94
2019-01-15T17:08:46.122Z,999.95
2019-01-15T17:09:46.091Z,999.96
2019-01-15T17:10:46.091Z,999.89
2019-01-15T17:11:46.816Z,999.91
2019-01-15T17:12:46.054Z,999.94
2019-01-15T17:13:46.047Z,999.95
2019-01-15T17:14:46.043Z,999.96
2019-01-15T17:15:46.017Z,999.89
2019-01-15T17:16:46.009Z,999.89
2019-01-15T17:17:46.016Z,999.91
2019-01-15T17:18:45.996Z,999.91
2019-01-15T17:19:46.007Z,999.89
2019-01-15T17:20:45.993Z,999.90
2019-01-15T17:21:45.966Z,999.88
2019-01-15T17:22:45.959Z,999.90
2019-01-15T17:23:46.046Z,999.92
2019-01-15T17:24:45.935Z,999.87
2019-01-15T17:25:45.908Z,999.83
2019-01-15T17:26:45.900Z,999.83
2019-01-15T17:27:45.899Z,999.87
2019-01-15T17:28:45.879Z,999.89
2019-01-15T17:29:45.874Z,999.88
2019-01-15T17:30:45.853Z,999.85
2019-01-15T17:31:45.848Z,999.87
2019-01-15T17:32:45.836Z,999.86
